sensor_id;sensor_type;location;lat;lon;timestamp;pressure;altitude;pressure_sealevel;temperature;humidity
44138;BME280;29800;55.942;37.314;2023-09-12T00:00:18;99855.56;;;10.77;78.26
44138;BME280;29800;55.942;37.314;2023-09-12T00:02:44;99853.31;;;10.74;78.40
44138;BME280;29800;55.942;37.314;2023-09-12T00:05:11;99852.72;;;10.72;78.42
44138;BME280;29800;55.942;37.314;2023-09-12T00:07:39;99857.59;;;10.70;78.44
44138;BME280;29800;55.942;37.314;2023-09-12T00:10:05;99864.69;;;10.66;78.60
44138;BME280;29800;55.942;37.314;2023-09-12T00:12:32;99862.44;;;10.63;78.58
44138;BME280;29800;55.942;37.314;2023-09-12T00:14:58;99867.31;;;10.61;78.42
44138;BME280;29800;55.942;37.314;2023-09-12T00:17:24;99865.09;;;10.58;78.45
44138;BME280;29800;55.942;37.314;2023-09-12T00:19:52;99874.59;;;10.55;78.46
44138;BME280;29800;55.942;37.314;2023-09-12T00:22:19;99861.66;;;10.51;78.37
44138;BME280;29800;55.942;37.314;2023-09-12T00:24:45;99860.50;;;10.46;78.36
44138;BME280;29800;55.942;37.314;2023-09-12T00:27:11;99862.91;;;10.43;78.34
44138;BME280;29800;55.942;37.314;2023-09-12T00:29:38;99867.78;;;10.41;78.21
44138;BME280;29800;55.942;37.314;2023-09-12T00:32:04;99873.72;;;10.38;78.19
44138;BME280;29800;55.942;37.314;2023-09-12T00:34:31;99869.59;;;10.35;78.37
44138;BME280;29800;55.942;37.314;2023-09-12T00:36:58;99878.88;;;10.34;78.42
44138;BME280;29800;55.942;37.314;2023-09-12T00:39:24;99884.91;;;10.36;78.72
44138;BME280;29800;55.942;37.314;2023-09-12T00:41:50;99878.06;;;10.34;78.58
44138;BME280;29800;55.942;37.314;2023-09-12T00:44:17;99879.31;;;10.31;78.53
44138;BME280;29800;55.942;37.314;2023-09-12T00:46:44;99877.69;;;10.30;78.50
44138;BME280;29800;55.942;37.314;2023-09-12T00:49:12;99876.50;;;10.26;78.26
44138;BME280;29800;55.942;37.314;2023-09-12T00:51:40;99875.91;;;10.24;78.60
44138;BME280;29800;55.942;37.314;2023-09-12T00:54:07;99886.63;;;10.25;78.70
44138;BME280;29800;55.942;37.314;2023-09-12T00:56:34;99886.94;;;10.29;78.89
44138;BME280;29800;55.942;37.314;2023-09-12T00:59:01;99884.47;;;10.27;78.58
44138;BME280;29800;55.942;37.314;2023-09-12T01:01:29;99883.06;;;10.25;78.89
44138;BME280;29800;55.942;37.314;2023-09-12T01:03:55;99888.28;;;10.26;78.92
44138;BME280;29800;55.942;37.314;2023-09-12T01:06:24;99886.13;;;10.28;79.05
44138;BME280;29800;55.942;37.314;2023-09-12T01:08:53;99887.44;;;10.26;78.84
44138;BME280;29800;55.942;37.314;2023-09-12T01:11:20;99893.16;;;10.24;78.78
44138;BME280;29800;55.942;37.314;2023-09-12T01:13:46;99888.78;;;10.23;78.90
44138;BME280;29800;55.942;37.314;2023-09-12T01:16:13;99882.44;;;10.23;78.77
44138;BME280;29800;55.942;37.314;2023-09-12T01:18:39;99882.44;;;10.23;78.80
44138;BME280;29800;55.942;37.314;2023-09-12T01:21:36;99880.53;;;10.35;78.99
44138;BME280;29800;55.942;37.314;2023-09-12T01:26:54;99884.13;;;10.24;78.83
44138;BME280;29800;55.942;37.314;2023-09-12T01:29:22;99892.25;;;10.19;78.47
44138;BME280;29800;55.942;37.314;2023-09-12T01:31:50;99888.31;;;10.15;78.34
44138;BME280;29800;55.942;37.314;2023-09-12T01:34:18;99890.47;;;10.12;78.40
44138;BME280;29800;55.942;37.314;2023-09-12T01:36:45;99883.31;;;10.11;78.53
44138;BME280;29800;55.942;37.314;2023-09-12T01:39:11;99892.03;;;10.08;78.60
44138;BME280;29800;55.942;37.314;2023-09-12T01:41:40;99892.63;;;10.10;78.24
44138;BME280;29800;55.942;37.314;2023-09-12T01:44:10;99904.28;;;10.06;78.03
44138;BME280;29800;55.942;37.314;2023-09-12T01:46:38;99902.84;;;10.03;78.38
44138;BME280;29800;55.942;37.314;2023-09-12T01:49:05;99902.84;;;10.03;78.63
44138;BME280;29800;55.942;37.314;2023-09-12T01:51:33;99907.75;;;10.01;78.89
44138;BME280;29800;55.942;37.314;2023-09-12T01:54:01;99900.63;;;10.00;78.56
44138;BME280;29800;55.942;37.314;2023-09-12T01:56:30;99907.97;;;10.00;78.28
44138;BME280;29800;55.942;37.314;2023-09-12T01:58:57;99909.91;;;9.99;78.58
44138;BME280;29800;55.942;37.314;2023-09-12T02:01:23;99908.22;;;9.98;78.51
44138;BME280;29800;55.942;37.314;2023-09-12T02:03:53;99915.38;;;9.99;78.56
44138;BME280;29800;55.942;37.314;2023-09-12T02:06:19;99905.59;;;10.03;78.52
44138;BME280;29800;55.942;37.314;2023-09-12T02:08:45;99915.94;;;10.01;78.31
44138;BME280;29800;55.942;37.314;2023-09-12T02:11:12;99916.78;;;10.02;78.57
44138;BME280;29800;55.942;37.314;2023-09-12T02:13:39;99922.50;;;10.00;78.53
44138;BME280;29800;55.942;37.314;2023-09-12T02:16:07;99926.31;;;9.99;78.52
44138;BME280;29800;55.942;37.314;2023-09-12T02:18:33;99920.84;;;9.99;78.70
44138;BME280;29800;55.942;37.314;2023-09-12T02:21:04;99923.00;;;9.97;78.64
44138;BME280;29800;55.942;37.314;2023-09-12T02:23:31;99928.47;;;9.97;78.75
44138;BME280;29800;55.942;37.314;2023-09-12T02:25:57;99922.38;;;9.95;78.61
44138;BME280;29800;55.942;37.314;2023-09-12T02:28:24;99917.16;;;9.93;78.55
44138;BME280;29800;55.942;37.314;2023-09-12T02:30:50;99925.63;;;9.92;78.48
44138;BME280;29800;55.942;37.314;2023-09-12T02:33:17;99921.44;;;9.89;78.52
44138;BME280;29800;55.942;37.314;2023-09-12T02:35:43;99920.63;;;9.89;78.45
44138;BME280;29800;55.942;37.314;2023-09-12T02:38:10;99920.00;;;9.87;78.48
44138;BME280;29800;55.942;37.314;2023-09-12T02:40:36;99921.34;;;9.84;78.43
44138;BME280;29800;55.942;37.314;2023-09-12T02:43:02;99928.69;;;9.84;78.22
44138;BME280;29800;55.942;37.314;2023-09-12T02:45:29;99931.94;;;9.81;78.47
44138;BME280;29800;55.942;37.314;2023-09-12T02:47:55;99922.88;;;9.80;78.23
44138;BME280;29800;55.942;37.314;2023-09-12T02:50:21;99927.53;;;9.80;78.57
44138;BME280;29800;55.942;37.314;2023-09-12T02:52:48;99924.81;;;9.80;78.46
44138;BME280;29800;55.942;37.314;2023-09-12T02:55:14;99933.00;;;9.80;78.56
44138;BME280;29800;55.942;37.314;2023-09-12T02:57:40;99937.66;;;9.79;77.99
44138;BME280;29800;55.942;37.314;2023-09-12T03:00:07;99921.72;;;9.76;78.05
44138;BME280;29800;55.942;37.314;2023-09-12T03:02:35;99936.22;;;9.77;77.97
44138;BME280;29800;55.942;37.314;2023-09-12T03:05:01;99936.44;;;9.75;77.96
44138;BME280;29800;55.942;37.314;2023-09-12T03:07:30;99942.72;;;9.75;78.40
44138;BME280;29800;55.942;37.314;2023-09-12T03:09:56;99942.72;;;9.75;78.33
44138;BME280;29800;55.942;37.314;2023-09-12T03:12:23;99933.94;;;9.73;77.92
44138;BME280;29800;55.942;37.314;2023-09-12T03:14:49;99937.78;;;9.72;78.39
44138;BME280;29800;55.942;37.314;2023-09-12T03:17:15;99944.53;;;9.70;78.27
44138;BME280;29800;55.942;37.314;2023-09-12T03:19:42;99941.56;;;9.71;78.28
44138;BME280;29800;55.942;37.314;2023-09-12T03:22:08;99939.31;;;9.68;78.32
44138;BME280;29800;55.942;37.314;2023-09-12T03:24:35;99942.03;;;9.68;78.74
44138;BME280;29800;55.942;37.314;2023-09-12T03:27:02;99943.97;;;9.68;78.49
44138;BME280;29800;55.942;37.314;2023-09-12T03:29:29;99947.16;;;9.65;78.20
44138;BME280;29800;55.942;37.314;2023-09-12T03:31:55;99948.84;;;9.66;78.66
44138;BME280;29800;55.942;37.314;2023-09-12T03:34:21;99946.34;;;9.64;78.45
44138;BME280;29800;55.942;37.314;2023-09-12T03:36:48;99950.72;;;9.65;78.74
44138;BME280;29800;55.942;37.314;2023-09-12T03:39:14;99950.72;;;9.65;78.78
44138;BME280;29800;55.942;37.314;2023-09-12T03:41:41;99951.31;;;9.67;78.89
44138;BME280;29800;55.942;37.314;2023-09-12T03:44:07;99944.19;;;9.66;78.85
44138;BME280;29800;55.942;37.314;2023-09-12T03:46:34;99950.72;;;9.65;78.54
44138;BME280;29800;55.942;37.314;2023-09-12T03:49:01;99953.44;;;9.65;78.53
44138;BME280;29800;55.942;37.314;2023-09-12T03:51:27;99948.22;;;9.64;78.91
44138;BME280;29800;55.942;37.314;2023-09-12T03:53:54;99946.34;;;9.64;78.64
44138;BME280;29800;55.942;37.314;2023-09-12T03:56:20;99954.78;;;9.63;78.54
44138;BME280;29800;55.942;37.314;2023-09-12T03:58:47;99948.47;;;9.62;78.87
44138;BME280;29800;55.942;37.314;2023-09-12T04:01:14;99950.25;;;9.68;79.46
44138;BME280;29800;55.942;37.314;2023-09-12T04:03:41;99948.81;;;9.78;79.48
44138;BME280;29800;55.942;37.314;2023-09-12T04:06:07;99955.56;;;9.87;79.38
44138;BME280;29800;55.942;37.314;2023-09-12T04:08:33;99956.28;;;9.94;79.21
44138;BME280;29800;55.942;37.314;2023-09-12T04:11:00;99963.03;;;10.03;78.93
44138;BME280;29800;55.942;37.314;2023-09-12T04:13:26;99962.66;;;10.11;78.91
44138;BME280;29800;55.942;37.314;2023-09-12T04:15:53;99963.34;;;10.19;78.88
44138;BME280;29800;55.942;37.314;2023-09-12T04:18:19;99963.09;;;10.32;78.96
44138;BME280;29800;55.942;37.314;2023-09-12T04:20:46;99960.66;;;10.47;79.49
44138;BME280;29800;55.942;37.314;2023-09-12T04:23:13;99959.06;;;10.63;79.04
44138;BME280;29800;55.942;37.314;2023-09-12T04:25:42;99965.16;;;10.82;79.46
44138;BME280;29800;55.942;37.314;2023-09-12T04:28:09;99961.28;;;10.95;79.54
44138;BME280;29800;55.942;37.314;2023-09-12T04:30:36;99961.78;;;11.09;79.86
44138;BME280;29800;55.942;37.314;2023-09-12T04:33:03;99969.09;;;11.20;79.29
44138;BME280;29800;55.942;37.314;2023-09-12T04:35:33;99967.09;;;11.33;79.05
44138;BME280;29800;55.942;37.314;2023-09-12T04:38:00;99968.25;;;11.37;78.87
44138;BME280;29800;55.942;37.314;2023-09-12T04:40:27;99973.06;;;11.47;78.85
44138;BME280;29800;55.942;37.314;2023-09-12T04:42:54;99971.06;;;11.59;79.11
44138;BME280;29800;55.942;37.314;2023-09-12T04:45:21;99973.72;;;11.71;79.43
44138;BME280;29800;55.942;37.314;2023-09-12T04:47:47;99980.22;;;11.87;79.50
44138;BME280;29800;55.942;37.314;2023-09-12T04:50:14;99974.16;;;12.02;79.23
44138;BME280;29800;55.942;37.314;2023-09-12T04:52:40;99968.88;;;12.17;79.19
44138;BME280;29800;55.942;37.314;2023-09-12T04:55:07;99969.06;;;12.32;78.79
44138;BME280;29800;55.942;37.314;2023-09-12T04:57:34;99974.66;;;12.43;78.57
44138;BME280;29800;55.942;37.314;2023-09-12T05:00:00;99971.78;;;12.55;78.39
44138;BME280;29800;55.942;37.314;2023-09-12T05:02:30;99968.34;;;12.64;78.21
44138;BME280;29800;55.942;37.314;2023-09-12T05:04:57;99971.75;;;12.77;77.85
44138;BME280;29800;55.942;37.314;2023-09-12T05:07:24;99965.81;;;12.90;77.08
44138;BME280;29800;55.942;37.314;2023-09-12T05:09:50;99975.00;;;13.01;76.59
44138;BME280;29800;55.942;37.314;2023-09-12T05:12:18;99973.50;;;13.15;77.18
44138;BME280;29800;55.942;37.314;2023-09-12T05:14:44;99963.44;;;13.31;76.69
44138;BME280;29800;55.942;37.314;2023-09-12T05:17:11;99971.28;;;13.45;75.90
44138;BME280;29800;55.942;37.314;2023-09-12T05:19:37;99975.75;;;13.56;74.88
44138;BME280;29800;55.942;37.314;2023-09-12T05:22:04;99977.47;;;13.67;74.19
44138;BME280;29800;55.942;37.314;2023-09-12T05:24:30;99968.50;;;13.82;75.00
44138;BME280;29800;55.942;37.314;2023-09-12T05:26:57;99971.88;;;13.94;74.38
44138;BME280;29800;55.942;37.314;2023-09-12T05:29:23;99971.66;;;14.06;73.79
44138;BME280;29800;55.942;37.314;2023-09-12T05:31:50;99975.03;;;14.19;73.06
44138;BME280;29800;55.942;37.314;2023-09-12T05:34:16;99976.22;;;14.38;72.44
44138;BME280;29800;55.942;37.314;2023-09-12T05:36:42;99980.38;;;14.51;71.81
44138;BME280;29800;55.942;37.314;2023-09-12T05:39:09;99982.63;;;14.59;71.62
44138;BME280;29800;55.942;37.314;2023-09-12T05:41:35;99983.22;;;14.66;70.81
44138;BME280;29800;55.942;37.314;2023-09-12T05:44:01;99988.47;;;14.73;70.58
44138;BME280;29800;55.942;37.314;2023-09-12T05:46:28;99992.31;;;14.77;70.61
44138;BME280;29800;55.942;37.314;2023-09-12T05:48:54;99985.19;;;14.81;69.99
44138;BME280;29800;55.942;37.314;2023-09-12T05:51:21;99988.47;;;14.83;70.00
44138;BME280;29800;55.942;37.314;2023-09-12T05:53:47;99982.16;;;14.83;70.17
44138;BME280;29800;55.942;37.314;2023-09-12T05:56:14;99975.25;;;14.85;69.96
44138;BME280;29800;55.942;37.314;2023-09-12T05:58:40;99981.88;;;14.89;69.83
44138;BME280;29800;55.942;37.314;2023-09-12T06:01:08;99979.13;;;14.95;69.87
44138;BME280;29800;55.942;37.314;2023-09-12T06:03:35;99979.41;;;14.93;69.46
44138;BME280;29800;55.942;37.314;2023-09-12T06:06:01;99976.66;;;14.98;69.28
44138;BME280;29800;55.942;37.314;2023-09-12T06:08:28;99979.41;;;15.03;69.38
44138;BME280;29800;55.942;37.314;2023-09-12T06:10:54;99987.41;;;15.10;69.27
44138;BME280;29800;55.942;37.314;2023-09-12T06:13:21;99985.78;;;15.19;68.92
44138;BME280;29800;55.942;37.314;2023-09-12T06:15:47;99987.97;;;15.28;68.11
44138;BME280;29800;55.942;37.314;2023-09-12T06:18:14;99990.72;;;15.33;68.71
44138;BME280;29800;55.942;37.314;2023-09-12T06:20:40;99990.19;;;15.36;68.20
44138;BME280;29800;55.942;37.314;2023-09-12T06:23:06;99985.78;;;15.35;69.00
44138;BME280;29800;55.942;37.314;2023-09-12T06:25:33;99994.88;;;15.35;68.72
44138;BME280;29800;55.942;37.314;2023-09-12T06:28:01;99992.94;;;15.41;68.53
44138;BME280;29800;55.942;37.314;2023-09-12T06:30:27;99993.22;;;15.44;67.79
44138;BME280;29800;55.942;37.314;2023-09-12T06:32:54;99990.19;;;15.51;67.43
44138;BME280;29800;55.942;37.314;2023-09-12T06:35:20;99994.88;;;15.56;67.45
44138;BME280;29800;55.942;37.314;2023-09-12T06:37:46;99990.47;;;15.60;67.67
44138;BME280;29800;55.942;37.314;2023-09-12T06:40:13;99990.47;;;15.60;67.54
44138;BME280;29800;55.942;37.314;2023-09-12T06:42:39;99999.84;;;15.74;66.88
44138;BME280;29800;55.942;37.314;2023-09-12T06:45:06;99990.44;;;15.80;66.57
44138;BME280;29800;55.942;37.314;2023-09-12T06:47:33;99992.94;;;15.82;65.98
44138;BME280;29800;55.942;37.314;2023-09-12T06:49:59;99993.72;;;15.98;67.59
44138;BME280;29800;55.942;37.314;2023-09-12T06:52:25;100000.09;;;15.93;65.97
44138;BME280;29800;55.942;37.314;2023-09-12T06:54:52;100001.22;;;15.92;65.65
44138;BME280;29800;55.942;37.314;2023-09-12T06:57:19;100006.72;;;15.97;66.49
44138;BME280;29800;55.942;37.314;2023-09-12T06:59:45;100001.47;;;16.01;66.69
44138;BME280;29800;55.942;37.314;2023-09-12T07:02:14;99998.41;;;16.08;66.27
44138;BME280;29800;55.942;37.314;2023-09-12T07:04:40;100008.59;;;16.12;65.66
44138;BME280;29800;55.942;37.314;2023-09-12T07:07:06;100004.44;;;16.20;66.18
44138;BME280;29800;55.942;37.314;2023-09-12T07:09:33;100003.88;;;16.23;66.13
44138;BME280;29800;55.942;37.314;2023-09-12T07:11:59;100015.19;;;16.27;65.48
44138;BME280;29800;55.942;37.314;2023-09-12T07:14:25;100008.53;;;16.33;65.21
44138;BME280;29800;55.942;37.314;2023-09-12T07:16:52;100011.78;;;16.50;65.57
44138;BME280;29800;55.942;37.314;2023-09-12T07:19:18;100011.50;;;16.52;64.46
44138;BME280;29800;55.942;37.314;2023-09-12T07:21:44;100019.72;;;16.62;65.20
44138;BME280;29800;55.942;37.314;2023-09-12T07:24:11;100007.56;;;16.63;64.17
44138;BME280;29800;55.942;37.314;2023-09-12T07:26:37;100012.53;;;16.66;63.61
44138;BME280;29800;55.942;37.314;2023-09-12T07:29:04;100010.00;;;16.75;63.77
44138;BME280;29800;55.942;37.314;2023-09-12T07:31:31;100005.28;;;16.76;62.67
44138;BME280;29800;55.942;37.314;2023-09-12T07:33:58;100004.44;;;16.80;63.50
44138;BME280;29800;55.942;37.314;2023-09-12T07:36:24;100006.34;;;16.90;62.88
44138;BME280;29800;55.942;37.314;2023-09-12T07:38:50;100010.72;;;17.01;62.02
44138;BME280;29800;55.942;37.314;2023-09-12T07:41:17;100007.47;;;17.29;61.68
44138;BME280;29800;55.942;37.314;2023-09-12T07:43:45;100018.03;;;17.56;60.89
44138;BME280;29800;55.942;37.314;2023-09-12T07:46:11;100016.16;;;17.80;60.09
44138;BME280;29800;55.942;37.314;2023-09-12T07:48:38;100007.31;;;18.08;58.40
44138;BME280;29800;55.942;37.314;2023-09-12T07:51:16;100012.22;;;18.40;60.11
44138;BME280;29800;55.942;37.314;2023-09-12T07:53:46;99998.69;;;18.58;56.71
44138;BME280;29800;55.942;37.314;2023-09-12T07:56:12;100009.50;;;18.78;56.60
44138;BME280;29800;55.942;37.314;2023-09-12T07:58:38;99996.22;;;18.99;55.48
44138;BME280;29800;55.942;37.314;2023-09-12T08:01:08;100004.22;;;19.20;54.92
44138;BME280;29800;55.942;37.314;2023-09-12T08:03:36;99994.75;;;19.40;54.07
44138;BME280;29800;55.942;37.314;2023-09-12T08:06:04;99998.97;;;19.51;53.47
44138;BME280;29800;55.942;37.314;2023-09-12T08:08:31;99996.38;;;19.74;52.58
44138;BME280;29800;55.942;37.314;2023-09-12T08:10:57;99994.81;;;20.00;51.56
44138;BME280;29800;55.942;37.314;2023-09-12T08:13:28;99997.38;;;20.25;50.95
44138;BME280;29800;55.942;37.314;2023-09-12T08:15:55;99993.47;;;20.39;51.27
44138;BME280;29800;55.942;37.314;2023-09-12T08:18:26;99995.09;;;20.54;50.09
44138;BME280;29800;55.942;37.314;2023-09-12T08:20:54;99993.88;;;20.61;50.25
44138;BME280;29800;55.942;37.314;2023-09-12T08:23:20;99983.03;;;20.87;50.10
44138;BME280;29800;55.942;37.314;2023-09-12T08:25:47;99988.13;;;21.07;48.67
44138;BME280;29800;55.942;37.314;2023-09-12T08:28:13;99992.44;;;21.14;48.27
44138;BME280;29800;55.942;37.314;2023-09-12T08:30:39;99986.69;;;21.33;48.37
44138;BME280;29800;55.942;37.314;2023-09-12T08:33:06;99995.06;;;21.55;48.13
44138;BME280;29800;55.942;37.314;2023-09-12T08:35:33;99988.38;;;21.42;46.08
44138;BME280;29800;55.942;37.314;2023-09-12T08:37:59;99986.63;;;21.69;46.23
44138;BME280;29800;55.942;37.314;2023-09-12T08:40:25;99989.66;;;21.81;46.13
44138;BME280;29800;55.942;37.314;2023-09-12T08:42:52;99994.44;;;21.90;45.32
44138;BME280;29800;55.942;37.314;2023-09-12T08:45:19;99992.53;;;21.99;45.29
44138;BME280;29800;55.942;37.314;2023-09-12T08:47:50;99987.66;;;22.13;45.45
44138;BME280;29800;55.942;37.314;2023-09-12T08:50:18;99981.69;;;22.29;44.51
44138;BME280;29800;55.942;37.314;2023-09-12T08:52:45;99980.59;;;22.47;43.68
44138;BME280;29800;55.942;37.314;2023-09-12T08:55:13;99990.28;;;22.50;43.44
44138;BME280;29800;55.942;37.314;2023-09-12T08:57:42;99982.91;;;22.63;42.82
44138;BME280;29800;55.942;37.314;2023-09-12T09:00:09;99982.44;;;22.78;42.51
44138;BME280;29800;55.942;37.314;2023-09-12T09:02:40;99985.41;;;22.73;41.34
44138;BME280;29800;55.942;37.314;2023-09-12T09:05:08;99983.47;;;22.91;43.38
44138;BME280;29800;55.942;37.314;2023-09-12T09:07:39;99982.13;;;22.88;41.80
44138;BME280;29800;55.942;37.314;2023-09-12T09:10:07;99981.16;;;23.02;41.00
44138;BME280;29800;55.942;37.314;2023-09-12T09:12:35;99974.13;;;23.30;40.75
44138;BME280;29800;55.942;37.314;2023-09-12T09:15:25;99975.06;;;23.52;41.91
44138;BME280;29800;55.942;37.314;2023-09-12T09:17:53;99974.25;;;23.43;40.36
44138;BME280;29800;55.942;37.314;2023-09-12T09:20:29;99962.72;;;23.62;41.08
44138;BME280;29800;55.942;37.314;2023-09-12T09:23:01;99967.84;;;23.60;40.42
44138;BME280;29800;55.942;37.314;2023-09-12T09:25:35;99962.84;;;23.74;39.61
44138;BME280;29800;55.942;37.314;2023-09-12T09:28:27;99958.56;;;23.77;40.35
44138;BME280;29800;55.942;37.314;2023-09-12T09:30:52;99958.56;;;23.77;39.98
44138;BME280;29800;55.942;37.314;2023-09-12T09:33:20;99963.69;;;23.75;39.30
44138;BME280;29800;55.942;37.314;2023-09-12T09:35:48;99957.09;;;23.71;38.89
44138;BME280;29800;55.942;37.314;2023-09-12T09:38:19;99955.13;;;23.80;39.67
44138;BME280;29800;55.942;37.314;2023-09-12T09:40:46;99962.50;;;23.76;38.09
44138;BME280;29800;55.942;37.314;2023-09-12T09:43:12;99952.50;;;23.75;37.60
44138;BME280;29800;55.942;37.314;2023-09-12T09:45:46;99953.34;;;23.66;38.12
44138;BME280;29800;55.942;37.314;2023-09-12T09:48:20;99965.53;;;23.53;38.29
44138;BME280;29800;55.942;37.314;2023-09-12T09:50:47;99968.50;;;23.39;38.70
44138;BME280;29800;55.942;37.314;2023-09-12T09:53:14;99969.34;;;23.31;39.17
44138;BME280;29800;55.942;37.314;2023-09-12T09:55:40;99965.41;;;23.23;38.67
44138;BME280;29800;55.942;37.314;2023-09-12T09:58:08;99972.31;;;23.17;39.16
44138;BME280;29800;55.942;37.314;2023-09-12T10:00:37;99964.94;;;23.12;39.34
44138;BME280;29800;55.942;37.314;2023-09-12T10:03:07;99969.50;;;23.08;39.54
44138;BME280;29800;55.942;37.314;2023-09-12T10:05:37;99970.97;;;23.06;42.47
44138;BME280;29800;55.942;37.314;2023-09-12T10:08:06;99977.72;;;22.96;39.59
44138;BME280;29800;55.942;37.314;2023-09-12T10:10:35;99964.41;;;22.84;40.99
44138;BME280;29800;55.942;37.314;2023-09-12T10:13:05;99971.47;;;22.73;40.04
44138;BME280;29800;55.942;37.314;2023-09-12T10:15:34;99964.38;;;22.67;39.90
44138;BME280;29800;55.942;37.314;2023-09-12T10:18:08;99970.75;;;22.50;39.82
44138;BME280;29800;55.942;37.314;2023-09-12T10:20:47;99970.88;;;22.45;40.41
44138;BME280;29800;55.942;37.314;2023-09-12T10:23:23;99965.94;;;22.33;40.37
44138;BME280;29800;55.942;37.314;2023-09-12T10:25:52;99958.19;;;22.21;41.14
44138;BME280;29800;55.942;37.314;2023-09-12T10:28:21;99958.31;;;22.07;40.13
44138;BME280;29800;55.942;37.314;2023-09-12T10:30:49;99961.69;;;21.95;41.16
44138;BME280;29800;55.942;37.314;2023-09-12T10:33:16;99956.56;;;21.89;41.71
44138;BME280;29800;55.942;37.314;2023-09-12T10:35:44;99963.44;;;21.82;41.81
44138;BME280;29800;55.942;37.314;2023-09-12T10:38:12;99958.75;;;21.69;40.46
44138;BME280;29800;55.942;37.314;2023-09-12T10:40:40;99958.91;;;21.64;40.39
44138;BME280;29800;55.942;37.314;2023-09-12T10:43:09;99960.16;;;21.58;41.03
44138;BME280;29800;55.942;37.314;2023-09-12T10:45:37;99958.69;;;21.52;41.31
44138;BME280;29800;55.942;37.314;2023-09-12T10:48:04;99959.31;;;21.48;41.63
44138;BME280;29800;55.942;37.314;2023-09-12T10:50:30;99957.13;;;21.45;40.97
44138;BME280;29800;55.942;37.314;2023-09-12T10:53:11;99957.59;;;21.61;43.37
44138;BME280;29800;55.942;37.314;2023-09-12T10:55:38;99952.19;;;21.65;40.38
44138;BME280;29800;55.942;37.314;2023-09-12T10:58:08;99952.94;;;21.79;39.65
44138;BME280;29800;55.942;37.314;2023-09-12T11:00:36;99958.84;;;21.87;37.30
44138;BME280;29800;55.942;37.314;2023-09-12T11:05:55;99954.41;;;22.17;38.28
44138;BME280;29800;55.942;37.314;2023-09-12T11:08:22;99948.56;;;22.36;38.24
44138;BME280;29800;55.942;37.314;2023-09-12T11:11:18;99941.38;;;22.52;38.08
44138;BME280;29800;55.942;37.314;2023-09-12T11:13:46;99939.78;;;22.78;37.62
44138;BME280;29800;55.942;37.314;2023-09-12T11:16:14;99936.66;;;22.79;38.43
44138;BME280;29800;55.942;37.314;2023-09-12T11:19:15;99943.91;;;22.98;38.07
44138;BME280;29800;55.942;37.314;2023-09-12T11:21:47;99935.53;;;22.98;36.43
44138;BME280;29800;55.942;37.314;2023-09-12T11:24:15;99937.66;;;23.01;36.92
44138;BME280;29800;55.942;37.314;2023-09-12T11:27:01;99932.25;;;23.30;36.64
44138;BME280;29800;55.942;37.314;2023-09-12T11:29:39;99923.97;;;23.43;35.89
44138;BME280;29800;55.942;37.314;2023-09-12T11:32:07;99935.34;;;23.38;35.14
44138;BME280;29800;55.942;37.314;2023-09-12T11:34:48;99936.16;;;23.47;35.80
44138;BME280;29800;55.942;37.314;2023-09-12T11:37:25;99940.91;;;23.46;34.52
44138;BME280;29800;55.942;37.314;2023-09-12T11:39:54;99941.41;;;23.48;33.83
44138;BME280;29800;55.942;37.314;2023-09-12T11:42:20;99946.97;;;23.40;35.69
44138;BME280;29800;55.942;37.314;2023-09-12T11:44:49;99935.19;;;23.25;34.17
44138;BME280;29800;55.942;37.314;2023-09-12T11:47:16;99939.31;;;23.19;34.28
44138;BME280;29800;55.942;37.314;2023-09-12T11:49:43;99933.84;;;23.05;35.23
44138;BME280;29800;55.942;37.314;2023-09-12T11:52:14;99938.63;;;22.87;34.62
44138;BME280;29800;55.942;37.314;2023-09-12T11:54:43;99942.41;;;22.74;34.37
44138;BME280;29800;55.942;37.314;2023-09-12T11:57:13;99940.09;;;22.58;34.82
44138;BME280;29800;55.942;37.314;2023-09-12T11:59:43;99942.19;;;22.53;35.10
44138;BME280;29800;55.942;37.314;2023-09-12T12:02:15;99937.78;;;22.43;36.42
44138;BME280;29800;55.942;37.314;2023-09-12T12:04:41;99943.91;;;22.23;36.51
44138;BME280;29800;55.942;37.314;2023-09-12T12:07:09;99944.38;;;22.16;36.91
44138;BME280;29800;55.942;37.314;2023-09-12T12:09:36;99935.31;;;22.01;36.69
44138;BME280;29800;55.942;37.314;2023-09-12T12:12:12;99931.16;;;21.90;37.42
44138;BME280;29800;55.942;37.314;2023-09-12T12:14:40;99932.09;;;21.77;37.05
44138;BME280;29800;55.942;37.314;2023-09-12T12:17:11;99933.59;;;21.74;38.56
44138;BME280;29800;55.942;37.314;2023-09-12T12:19:39;99930.28;;;21.72;37.07
44138;BME280;29800;55.942;37.314;2023-09-12T12:22:06;99931.94;;;21.73;37.63
44138;BME280;29800;55.942;37.314;2023-09-12T12:24:46;99927.53;;;21.81;37.13
44138;BME280;29800;55.942;37.314;2023-09-12T12:27:16;99921.84;;;21.86;36.14
44138;BME280;29800;55.942;37.314;2023-09-12T12:29:44;99923.31;;;21.92;36.39
44138;BME280;29800;55.942;37.314;2023-09-12T12:32:14;99924.78;;;21.90;36.42
44138;BME280;29800;55.942;37.314;2023-09-12T12:34:41;99920.91;;;21.99;36.67
44138;BME280;29800;55.942;37.314;2023-09-12T12:37:09;99925.66;;;21.99;36.19
44138;BME280;29800;55.942;37.314;2023-09-12T12:39:42;99930.44;;;22.07;36.59
44138;BME280;29800;55.942;37.314;2023-09-12T12:42:09;99924.50;;;22.00;35.78
44138;BME280;29800;55.942;37.314;2023-09-12T12:44:36;99921.41;;;22.10;35.55
44138;BME280;29800;55.942;37.314;2023-09-12T12:47:08;99929.13;;;22.13;36.21
44138;BME280;29800;55.942;37.314;2023-09-12T12:49:38;99924.25;;;22.19;36.43
44138;BME280;29800;55.942;37.314;2023-09-12T12:52:09;99922.25;;;22.19;35.80
44138;BME280;29800;55.942;37.314;2023-09-12T12:54:36;99917.31;;;22.16;35.66
44138;BME280;29800;55.942;37.314;2023-09-12T12:57:02;99931.13;;;22.21;35.50
44138;BME280;29800;55.942;37.314;2023-09-12T12:59:29;99922.69;;;22.44;35.56